sensor_id;sensor_type;location;lat;lon;timestamp;temperature;humidity
6260;DHT22;3163;51.516;4.000;2023-05-10T00:01:43;16.20;99.90
6260;DHT22;3163;51.516;4.000;2023-05-10T00:04:09;16.10;99.90
6260;DHT22;3163;51.516;4.000;2023-05-10T00:06:34;16.10;99.90
6260;DHT22;3163;51.516;4.000;2023-05-10T00:09:00;16.10;99.90
6260;DHT22;3163;51.516;4.000;2023-05-10T00:11:25;16.20;99.90
6260;DHT22;3163;51.516;4.000;2023-05-10T00:13:51;16.30;99.90
6260;DHT22;3163;51.516;4.000;2023-05-10T00:16:16;16.30;99.90
6260;DHT22;3163;51.516;4.000;2023-05-10T00:18:42;16.30;99.90
6260;DHT22;3163;51.516;4.000;2023-05-10T00:21:08;16.40;99.90
6260;DHT22;3163;51.516;4.000;2023-05-10T00:23:33;16.30;99.90
6260;DHT22;3163;51.516;4.000;2023-05-10T00:25:59;16.40;99.90
6260;DHT22;3163;51.516;4.000;2023-05-10T00:28:25;16.40;99.90
6260;DHT22;3163;51.516;4.000;2023-05-10T00:30:52;16.40;99.90
6260;DHT22;3163;51.516;4.000;2023-05-10T00:33:17;16.40;99.90
6260;DHT22;3163;51.516;4.000;2023-05-10T00:35:43;16.30;99.90
6260;DHT22;3163;51.516;4.000;2023-05-10T00:38:09;16.30;99.90
6260;DHT22;3163;51.516;4.000;2023-05-10T00:40:36;16.40;99.90
6260;DHT22;3163;51.516;4.000;2023-05-10T00:43:02;16.30;99.90
6260;DHT22;3163;51.516;4.000;2023-05-10T00:45:29;16.40;99.90
6260;DHT22;3163;51.516;4.000;2023-05-10T00:47:55;16.40;99.90
6260;DHT22;3163;51.516;4.000;2023-05-10T00:50:24;16.40;99.90
6260;DHT22;3163;51.516;4.000;2023-05-10T00:52:50;16.40;99.90
6260;DHT22;3163;51.516;4.000;2023-05-10T00:55:16;16.40;99.90
6260;DHT22;3163;51.516;4.000;2023-05-10T00:57:42;16.30;99.90
6260;DHT22;3163;51.516;4.000;2023-05-10T01:00:08;16.40;99.90
6260;DHT22;3163;51.516;4.000;2023-05-10T01:02:35;16.30;99.90
6260;DHT22;3163;51.516;4.000;2023-05-10T01:05:02;16.30;99.90
6260;DHT22;3163;51.516;4.000;2023-05-10T01:07:29;16.30;99.90
6260;DHT22;3163;51.516;4.000;2023-05-10T01:09:55;16.20;99.90
6260;DHT22;3163;51.516;4.000;2023-05-10T01:12:21;16.20;99.90
6260;DHT22;3163;51.516;4.000;2023-05-10T01:14:47;16.20;99.90
6260;DHT22;3163;51.516;4.000;2023-05-10T01:17:13;16.20;99.90
6260;DHT22;3163;51.516;4.000;2023-05-10T01:19:40;16.30;99.90
6260;DHT22;3163;51.516;4.000;2023-05-10T01:35:54;16.30;99.90
6260;DHT22;3163;51.516;4.000;2023-05-10T01:38:53;16.30;99.90
6260;DHT22;3163;51.516;4.000;2023-05-10T01:47:48;16.40;99.90
6260;DHT22;3163;51.516;4.000;2023-05-10T01:50:18;16.30;99.90
6260;DHT22;3163;51.516;4.000;2023-05-10T01:52:51;16.30;99.90
6260;DHT22;3163;51.516;4.000;2023-05-10T01:55:21;16.30;99.90
6260;DHT22;3163;51.516;4.000;2023-05-10T01:57:52;16.30;99.90
6260;DHT22;3163;51.516;4.000;2023-05-10T02:00:22;16.20;99.90
6260;DHT22;3163;51.516;4.000;2023-05-10T02:02:49;16.20;99.90
6260;DHT22;3163;51.516;4.000;2023-05-10T02:05:17;16.20;99.90
6260;DHT22;3163;51.516;4.000;2023-05-10T02:07:43;16.20;99.90
6260;DHT22;3163;51.516;4.000;2023-05-10T02:10:10;16.20;99.90
6260;DHT22;3163;51.516;4.000;2023-05-10T02:12:39;16.20;99.90
6260;DHT22;3163;51.516;4.000;2023-05-10T02:15:07;16.20;99.90
6260;DHT22;3163;51.516;4.000;2023-05-10T02:17:35;16.30;99.90
6260;DHT22;3163;51.516;4.000;2023-05-10T02:20:03;16.30;99.90
6260;DHT22;3163;51.516;4.000;2023-05-10T02:22:30;16.30;99.90
6260;DHT22;3163;51.516;4.000;2023-05-10T02:24:58;16.30;99.90
6260;DHT22;3163;51.516;4.000;2023-05-10T02:27:26;16.30;99.90
6260;DHT22;3163;51.516;4.000;2023-05-10T02:29:53;16.30;99.90
6260;DHT22;3163;51.516;4.000;2023-05-10T02:32:21;16.40;99.90
6260;DHT22;3163;51.516;4.000;2023-05-10T02:34:47;16.30;99.90
6260;DHT22;3163;51.516;4.000;2023-05-10T02:37:19;16.30;99.90
6260;DHT22;3163;51.516;4.000;2023-05-10T02:39:55;16.30;99.90
6260;DHT22;3163;51.516;4.000;2023-05-10T02:42:29;16.30;99.90
6260;DHT22;3163;51.516;4.000;2023-05-10T02:45:01;16.30;99.90
6260;DHT22;3163;51.516;4.000;2023-05-10T02:47:28;16.30;99.90
6260;DHT22;3163;51.516;4.000;2023-05-10T02:49:54;16.20;99.90
6260;DHT22;3163;51.516;4.000;2023-05-10T02:52:25;16.30;99.90
6260;DHT22;3163;51.516;4.000;2023-05-10T02:54:55;16.30;99.90
6260;DHT22;3163;51.516;4.000;2023-05-10T02:57:28;16.20;99.90
6260;DHT22;3163;51.516;4.000;2023-05-10T02:59:56;16.20;99.90
6260;DHT22;3163;51.516;4.000;2023-05-10T03:02:22;16.20;99.90
6260;DHT22;3163;51.516;4.000;2023-05-10T03:04:48;16.20;99.90
6260;DHT22;3163;51.516;4.000;2023-05-10T03:07:14;16.10;99.90
6260;DHT22;3163;51.516;4.000;2023-05-10T03:09:40;16.10;99.90
6260;DHT22;3163;51.516;4.000;2023-05-10T03:12:19;16.20;99.90
6260;DHT22;3163;51.516;4.000;2023-05-10T03:20:26;16.10;99.90
6260;DHT22;3163;51.516;4.000;2023-05-10T03:23:13;16.10;99.90
6260;DHT22;3163;51.516;4.000;2023-05-10T03:25:43;16.20;99.90
6260;DHT22;3163;51.516;4.000;2023-05-10T03:28:11;16.20;99.90
6260;DHT22;3163;51.516;4.000;2023-05-10T03:30:38;16.20;99.90
6260;DHT22;3163;51.516;4.000;2023-05-10T03:33:06;16.20;99.90
6260;DHT22;3163;51.516;4.000;2023-05-10T03:35:32;16.10;99.90
6260;DHT22;3163;51.516;4.000;2023-05-10T03:37:58;16.10;99.90
6260;DHT22;3163;51.516;4.000;2023-05-10T03:40:24;16.10;99.90
6260;DHT22;3163;51.516;4.000;2023-05-10T03:42:50;16.20;99.90
6260;DHT22;3163;51.516;4.000;2023-05-10T03:45:15;16.20;99.90
6260;DHT22;3163;51.516;4.000;2023-05-10T03:47:41;16.20;99.90
6260;DHT22;3163;51.516;4.000;2023-05-10T03:50:07;16.10;99.90
6260;DHT22;3163;51.516;4.000;2023-05-10T03:52:33;16.20;99.90
6260;DHT22;3163;51.516;4.000;2023-05-10T03:54:58;16.20;99.90
6260;DHT22;3163;51.516;4.000;2023-05-10T03:57:24;16.30;99.90
6260;DHT22;3163;51.516;4.000;2023-05-10T03:59:50;16.20;99.90
6260;DHT22;3163;51.516;4.000;2023-05-10T04:02:15;16.10;99.90
6260;DHT22;3163;51.516;4.000;2023-05-10T04:04:41;16.10;99.90
6260;DHT22;3163;51.516;4.000;2023-05-10T04:07:07;16.10;99.90
6260;DHT22;3163;51.516;4.000;2023-05-10T04:09:32;16.10;99.90
6260;DHT22;3163;51.516;4.000;2023-05-10T04:11:58;16.10;99.90
6260;DHT22;3163;51.516;4.000;2023-05-10T04:14:24;16.10;99.90
6260;DHT22;3163;51.516;4.000;2023-05-10T04:16:50;16.10;99.90
6260;DHT22;3163;51.516;4.000;2023-05-10T04:19:15;16.10;99.90
6260;DHT22;3163;51.516;4.000;2023-05-10T04:21:41;16.10;99.90
6260;DHT22;3163;51.516;4.000;2023-05-10T04:24:07;16.10;99.90
6260;DHT22;3163;51.516;4.000;2023-05-10T04:26:32;16.10;99.90
6260;DHT22;3163;51.516;4.000;2023-05-10T04:28:58;16.10;99.90
6260;DHT22;3163;51.516;4.000;2023-05-10T04:31:23;16.30;99.90
6260;DHT22;3163;51.516;4.000;2023-05-10T04:33:49;16.30;99.90
6260;DHT22;3163;51.516;4.000;2023-05-10T04:36:15;16.40;99.90
6260;DHT22;3163;51.516;4.000;2023-05-10T04:38:40;16.40;99.90
6260;DHT22;3163;51.516;4.000;2023-05-10T04:41:10;16.40;99.90
6260;DHT22;3163;51.516;4.000;2023-05-10T04:43:37;16.50;99.90
6260;DHT22;3163;51.516;4.000;2023-05-10T04:46:04;16.50;99.90
6260;DHT22;3163;51.516;4.000;2023-05-10T04:48:29;16.60;99.90
6260;DHT22;3163;51.516;4.000;2023-05-10T04:50:55;16.60;99.90
6260;DHT22;3163;51.516;4.000;2023-05-10T04:53:21;16.50;99.90
6260;DHT22;3163;51.516;4.000;2023-05-10T04:55:47;16.40;99.90
6260;DHT22;3163;51.516;4.000;2023-05-10T04:58:13;16.40;99.90
6260;DHT22;3163;51.516;4.000;2023-05-10T05:00:39;16.40;99.90
6260;DHT22;3163;51.516;4.000;2023-05-10T05:03:04;16.50;99.90
6260;DHT22;3163;51.516;4.000;2023-05-10T05:05:30;16.50;99.90
6260;DHT22;3163;51.516;4.000;2023-05-10T05:07:56;16.60;99.90
6260;DHT22;3163;51.516;4.000;2023-05-10T05:10:22;16.60;99.90
6260;DHT22;3163;51.516;4.000;2023-05-10T05:12:47;16.50;99.90
6260;DHT22;3163;51.516;4.000;2023-05-10T05:15:13;16.60;99.90
6260;DHT22;3163;51.516;4.000;2023-05-10T05:17:38;16.60;99.90
6260;DHT22;3163;51.516;4.000;2023-05-10T05:20:04;16.60;99.90
6260;DHT22;3163;51.516;4.000;2023-05-10T05:22:30;16.70;99.90
6260;DHT22;3163;51.516;4.000;2023-05-10T05:24:56;16.60;99.90
6260;DHT22;3163;51.516;4.000;2023-05-10T05:27:23;16.50;99.90
6260;DHT22;3163;51.516;4.000;2023-05-10T05:29:56;16.50;99.90
6260;DHT22;3163;51.516;4.000;2023-05-10T05:32:22;16.70;99.90
6260;DHT22;3163;51.516;4.000;2023-05-10T05:34:48;16.90;99.90
6260;DHT22;3163;51.516;4.000;2023-05-10T05:37:19;16.90;99.90
6260;DHT22;3163;51.516;4.000;2023-05-10T05:39:45;17.00;99.90
6260;DHT22;3163;51.516;4.000;2023-05-10T05:42:11;17.00;99.90
6260;DHT22;3163;51.516;4.000;2023-05-10T05:44:37;17.10;99.90
6260;DHT22;3163;51.516;4.000;2023-05-10T05:47:02;17.10;99.90
6260;DHT22;3163;51.516;4.000;2023-05-10T05:49:28;17.10;99.90
6260;DHT22;3163;51.516;4.000;2023-05-10T05:51:54;17.20;99.90
6260;DHT22;3163;51.516;4.000;2023-05-10T05:54:20;17.30;99.90
6260;DHT22;3163;51.516;4.000;2023-05-10T05:56:45;17.30;99.90
6260;DHT22;3163;51.516;4.000;2023-05-10T05:59:11;17.20;99.90
6260;DHT22;3163;51.516;4.000;2023-05-10T06:01:37;17.20;99.90
6260;DHT22;3163;51.516;4.000;2023-05-10T06:04:02;17.30;99.90
6260;DHT22;3163;51.516;4.000;2023-05-10T06:06:28;17.30;99.90
6260;DHT22;3163;51.516;4.000;2023-05-10T06:08:54;17.40;99.90
6260;DHT22;3163;51.516;4.000;2023-05-10T06:11:19;17.40;99.90
6260;DHT22;3163;51.516;4.000;2023-05-10T06:13:46;17.40;99.90
6260;DHT22;3163;51.516;4.000;2023-05-10T06:16:12;17.40;99.90
6260;DHT22;3163;51.516;4.000;2023-05-10T06:18:38;17.40;99.90
6260;DHT22;3163;51.516;4.000;2023-05-10T06:21:04;17.50;99.90
6260;DHT22;3163;51.516;4.000;2023-05-10T06:23:29;17.40;99.90
6260;DHT22;3163;51.516;4.000;2023-05-10T06:25:55;17.50;99.90
6260;DHT22;3163;51.516;4.000;2023-05-10T06:28:21;17.40;99.90
6260;DHT22;3163;51.516;4.000;2023-05-10T06:30:46;17.40;99.90
6260;DHT22;3163;51.516;4.000;2023-05-10T06:33:12;17.30;99.90
6260;DHT22;3163;51.516;4.000;2023-05-10T06:35:37;17.30;99.90
6260;DHT22;3163;51.516;4.000;2023-05-10T06:38:04;17.50;99.90
6260;DHT22;3163;51.516;4.000;2023-05-10T06:40:30;17.50;99.90
6260;DHT22;3163;51.516;4.000;2023-05-10T06:42:55;17.60;99.90
6260;DHT22;3163;51.516;4.000;2023-05-10T06:45:21;17.60;99.90
6260;DHT22;3163;51.516;4.000;2023-05-10T06:47:47;17.70;99.90
6260;DHT22;3163;51.516;4.000;2023-05-10T06:50:12;17.60;99.90
6260;DHT22;3163;51.516;4.000;2023-05-10T06:52:38;17.70;99.90
6260;DHT22;3163;51.516;4.000;2023-05-10T06:55:04;17.70;99.90
6260;DHT22;3163;51.516;4.000;2023-05-10T06:57:30;17.70;99.90
6260;DHT22;3163;51.516;4.000;2023-05-10T06:59:56;17.70;99.90
6260;DHT22;3163;51.516;4.000;2023-05-10T07:02:22;17.60;99.90
6260;DHT22;3163;51.516;4.000;2023-05-10T07:04:48;17.40;99.90
6260;DHT22;3163;51.516;4.000;2023-05-10T07:07:14;17.40;99.90
6260;DHT22;3163;51.516;4.000;2023-05-10T07:09:40;17.50;99.90
6260;DHT22;3163;51.516;4.000;2023-05-10T07:12:06;17.50;99.90
6260;DHT22;3163;51.516;4.000;2023-05-10T07:14:31;17.70;99.90
6260;DHT22;3163;51.516;4.000;2023-05-10T07:16:57;17.70;99.90
6260;DHT22;3163;51.516;4.000;2023-05-10T07:19:22;17.60;99.90
6260;DHT22;3163;51.516;4.000;2023-05-10T07:21:48;17.80;99.90
6260;DHT22;3163;51.516;4.000;2023-05-10T07:26:39;17.90;99.90
6260;DHT22;3163;51.516;4.000;2023-05-10T07:29:05;17.90;99.90
6260;DHT22;3163;51.516;4.000;2023-05-10T07:31:31;17.90;99.90
6260;DHT22;3163;51.516;4.000;2023-05-10T07:33:56;17.80;99.90
6260;DHT22;3163;51.516;4.000;2023-05-10T07:36:22;17.80;99.90
6260;DHT22;3163;51.516;4.000;2023-05-10T07:38:47;17.70;99.90
6260;DHT22;3163;51.516;4.000;2023-05-10T07:41:14;17.70;99.90
6260;DHT22;3163;51.516;4.000;2023-05-10T07:43:40;17.70;99.90
6260;DHT22;3163;51.516;4.000;2023-05-10T07:46:05;17.80;99.90
6260;DHT22;3163;51.516;4.000;2023-05-10T07:48:31;17.80;99.90
6260;DHT22;3163;51.516;4.000;2023-05-10T07:50:57;17.80;99.90
6260;DHT22;3163;51.516;4.000;2023-05-10T07:53:22;17.70;99.90
6260;DHT22;3163;51.516;4.000;2023-05-10T07:55:51;17.70;99.90
6260;DHT22;3163;51.516;4.000;2023-05-10T07:58:19;17.70;99.90
6260;DHT22;3163;51.516;4.000;2023-05-10T08:00:45;17.70;99.90
6260;DHT22;3163;51.516;4.000;2023-05-10T08:03:11;17.70;99.90
6260;DHT22;3163;51.516;4.000;2023-05-10T08:05:37;17.70;99.90
6260;DHT22;3163;51.516;4.000;2023-05-10T08:08:02;17.50;99.90
6260;DHT22;3163;51.516;4.000;2023-05-10T08:10:28;17.40;99.90
6260;DHT22;3163;51.516;4.000;2023-05-10T08:12:53;17.40;99.90
6260;DHT22;3163;51.516;4.000;2023-05-10T08:15:19;17.50;99.90
6260;DHT22;3163;51.516;4.000;2023-05-10T08:17:45;17.70;99.90
6260;DHT22;3163;51.516;4.000;2023-05-10T08:20:11;17.80;99.90
6260;DHT22;3163;51.516;4.000;2023-05-10T08:22:38;17.90;99.90
6260;DHT22;3163;51.516;4.000;2023-05-10T08:25:04;18.00;99.90
6260;DHT22;3163;51.516;4.000;2023-05-10T08:27:29;18.00;99.90
6260;DHT22;3163;51.516;4.000;2023-05-10T08:29:55;18.10;99.90
6260;DHT22;3163;51.516;4.000;2023-05-10T08:32:20;18.10;99.90
6260;DHT22;3163;51.516;4.000;2023-05-10T08:34:46;18.10;99.90
6260;DHT22;3163;51.516;4.000;2023-05-10T08:37:12;18.20;99.90
6260;DHT22;3163;51.516;4.000;2023-05-10T08:39:38;18.20;99.90
6260;DHT22;3163;51.516;4.000;2023-05-10T08:42:04;18.10;99.90
6260;DHT22;3163;51.516;4.000;2023-05-10T08:44:35;18.10;99.90
6260;DHT22;3163;51.516;4.000;2023-05-10T08:47:06;18.10;99.90
6260;DHT22;3163;51.516;4.000;2023-05-10T08:49:32;18.20;99.90
6260;DHT22;3163;51.516;4.000;2023-05-10T08:52:01;18.40;99.90
6260;DHT22;3163;51.516;4.000;2023-05-10T08:54:28;18.40;99.90
6260;DHT22;3163;51.516;4.000;2023-05-10T08:56:55;18.40;99.90
6260;DHT22;3163;51.516;4.000;2023-05-10T08:59:22;18.30;99.90
6260;DHT22;3163;51.516;4.000;2023-05-10T09:01:48;18.40;99.90
6260;DHT22;3163;51.516;4.000;2023-05-10T09:04:14;18.40;99.90
6260;DHT22;3163;51.516;4.000;2023-05-10T09:06:40;18.50;99.90
6260;DHT22;3163;51.516;4.000;2023-05-10T09:09:06;18.50;99.90
6260;DHT22;3163;51.516;4.000;2023-05-10T09:11:32;18.40;99.90
6260;DHT22;3163;51.516;4.000;2023-05-10T09:13:58;18.40;99.90
6260;DHT22;3163;51.516;4.000;2023-05-10T09:16:23;18.40;99.90
6260;DHT22;3163;51.516;4.000;2023-05-10T09:18:49;18.30;99.90
6260;DHT22;3163;51.516;4.000;2023-05-10T09:21:15;18.30;99.90
6260;DHT22;3163;51.516;4.000;2023-05-10T09:23:47;18.50;99.90
6260;DHT22;3163;51.516;4.000;2023-05-10T09:26:12;18.60;99.90
6260;DHT22;3163;51.516;4.000;2023-05-10T09:31:17;18.60;99.90
6260;DHT22;3163;51.516;4.000;2023-05-10T09:33:47;18.70;99.90
6260;DHT22;3163;51.516;4.000;2023-05-10T09:36:13;18.70;99.90
6260;DHT22;3163;51.516;4.000;2023-05-10T09:38:46;18.30;99.90
6260;DHT22;3163;51.516;4.000;2023-05-10T09:41:20;18.50;99.90
6260;DHT22;3163;51.516;4.000;2023-05-10T09:43:46;18.60;99.90
6260;DHT22;3163;51.516;4.000;2023-05-10T09:46:11;18.60;99.90
6260;DHT22;3163;51.516;4.000;2023-05-10T09:48:47;18.50;99.90
6260;DHT22;3163;51.516;4.000;2023-05-10T09:51:23;18.40;99.90
6260;DHT22;3163;51.516;4.000;2023-05-10T09:54:11;18.40;99.90
6260;DHT22;3163;51.516;4.000;2023-05-10T09:56:38;18.40;99.90
6260;DHT22;3163;51.516;4.000;2023-05-10T09:59:05;18.30;99.90
6260;DHT22;3163;51.516;4.000;2023-05-10T10:01:31;18.30;99.90
6260;DHT22;3163;51.516;4.000;2023-05-10T10:03:57;18.30;99.90
6260;DHT22;3163;51.516;4.000;2023-05-10T10:06:24;18.30;99.90
6260;DHT22;3163;51.516;4.000;2023-05-10T10:08:50;18.30;99.90
6260;DHT22;3163;51.516;4.000;2023-05-10T10:11:16;18.30;99.90
6260;DHT22;3163;51.516;4.000;2023-05-10T10:13:42;18.30;99.90
6260;DHT22;3163;51.516;4.000;2023-05-10T10:16:08;18.30;99.90
6260;DHT22;3163;51.516;4.000;2023-05-10T10:18:36;18.30;99.90
6260;DHT22;3163;51.516;4.000;2023-05-10T10:21:06;18.20;99.90
6260;DHT22;3163;51.516;4.000;2023-05-10T10:23:34;18.00;99.90
6260;DHT22;3163;51.516;4.000;2023-05-10T10:26:00;18.10;99.90
6260;DHT22;3163;51.516;4.000;2023-05-10T10:31:02;18.30;99.90
6260;DHT22;3163;51.516;4.000;2023-05-10T10:36:15;18.40;99.90
6260;DHT22;3163;51.516;4.000;2023-05-10T10:41:38;18.30;99.90
6260;DHT22;3163;51.516;4.000;2023-05-10T10:44:32;18.40;99.90
6260;DHT22;3163;51.516;4.000;2023-05-10T10:52:24;18.10;99.90
6260;DHT22;3163;51.516;4.000;2023-05-10T10:55:00;18.20;99.90
6260;DHT22;3163;51.516;4.000;2023-05-10T10:57:27;18.30;99.90
6260;DHT22;3163;51.516;4.000;2023-05-10T11:03:04;18.30;99.90
6260;DHT22;3163;51.516;4.000;2023-05-10T11:08:13;18.40;99.90
6260;DHT22;3163;51.516;4.000;2023-05-10T11:10:48;18.30;99.90
6260;DHT22;3163;51.516;4.000;2023-05-10T11:13:14;18.30;99.90
6260;DHT22;3163;51.516;4.000;2023-05-10T11:15:43;18.40;99.90
6260;DHT22;3163;51.516;4.000;2023-05-10T11:18:29;18.30;99.90
6260;DHT22;3163;51.516;4.000;2023-05-10T11:20:59;18.20;99.90
6260;DHT22;3163;51.516;4.000;2023-05-10T11:23:32;18.20;99.90
6260;DHT22;3163;51.516;4.000;2023-05-10T11:25:59;18.30;99.90
6260;DHT22;3163;51.516;4.000;2023-05-10T11:28:26;18.30;99.90
6260;DHT22;3163;51.516;4.000;2023-05-10T11:30:52;18.40;99.90
6260;DHT22;3163;51.516;4.000;2023-05-10T11:33:19;18.30;99.90
6260;DHT22;3163;51.516;4.000;2023-05-10T11:35:45;18.40;99.90
6260;DHT22;3163;51.516;4.000;2023-05-10T11:38:12;18.40;99.90
6260;DHT22;3163;51.516;4.000;2023-05-10T11:40:38;18.40;99.90
6260;DHT22;3163;51.516;4.000;2023-05-10T11:43:04;18.40;99.90
6260;DHT22;3163;51.516;4.000;2023-05-10T11:45:34;18.40;99.90
6260;DHT22;3163;51.516;4.000;2023-05-10T11:48:00;18.50;99.90
6260;DHT22;3163;51.516;4.000;2023-05-10T11:50:26;18.40;99.90
6260;DHT22;3163;51.516;4.000;2023-05-10T11:52:56;18.40;99.90
6260;DHT22;3163;51.516;4.000;2023-05-10T11:55:22;18.40;99.90
6260;DHT22;3163;51.516;4.000;2023-05-10T11:57:52;18.60;99.90
6260;DHT22;3163;51.516;4.000;2023-05-10T12:00:17;18.60;99.90
6260;DHT22;3163;51.516;4.000;2023-05-10T12:02:43;18.70;99.90
6260;DHT22;3163;51.516;4.000;2023-05-10T12:05:10;18.80;99.90
6260;DHT22;3163;51.516;4.000;2023-05-10T12:07:35;18.80;99.90
6260;DHT22;3163;51.516;4.000;2023-05-10T12:10:08;18.80;99.90
6260;DHT22;3163;51.516;4.000;2023-05-10T12:12:42;18.80;99.90
6260;DHT22;3163;51.516;4.000;2023-05-10T12:15:26;18.80;99.90
6260;DHT22;3163;51.516;4.000;2023-05-10T12:17:53;18.80;99.90
6260;DHT22;3163;51.516;4.000;2023-05-10T12:22:56;18.90;99.90
6260;DHT22;3163;51.516;4.000;2023-05-10T12:25:23;18.80;99.90
6260;DHT22;3163;51.516;4.000;2023-05-10T12:27:53;18.80;99.90
6260;DHT22;3163;51.516;4.000;2023-05-10T12:30:23;18.80;99.90
6260;DHT22;3163;51.516;4.000;2023-05-10T12:32:49;18.90;99.90
6260;DHT22;3163;51.516;4.000;2023-05-10T12:35:15;18.90;99.90
6260;DHT22;3163;51.516;4.000;2023-05-10T12:37:43;19.00;99.90
6260;DHT22;3163;51.516;4.000;2023-05-10T12:40:09;19.00;99.90
6260;DHT22;3163;51.516;4.000;2023-05-10T12:42:36;19.00;99.90
6260;DHT22;3163;51.516;4.000;2023-05-10T12:45:03;19.00;99.90
6260;DHT22;3163;51.516;4.000;2023-05-10T12:47:29;19.10;99.90
6260;DHT22;3163;51.516;4.000;2023-05-10T12:49:55;19.10;99.90
6260;DHT22;3163;51.516;4.000;2023-05-10T12:52:21;19.10;99.90
6260;DHT22;3163;51.516;4.000;2023-05-10T12:54:47;19.10;99.90
6260;DHT22;3163;51.516;4.000;2023-05-10T12:57:13;19.10;99.90
6260;DHT22;3163;51.516;4.000;2023-05-10T12:59:38;19.00;99.90
6260;DHT22;3163;51.516;4.000;2023-05-10T13:02:05;19.10;99.90
6260;DHT22;3163;51.516;4.000;2023-05-10T13:04:31;19.20;99.90
6260;DHT22;3163;51.516;4.000;2023-05-10T13:06:56;19.00;99.90
6260;DHT22;3163;51.516;4.000;2023-05-10T13:09:24;19.10;99.90
6260;DHT22;3163;51.516;4.000;2023-05-10T13:11:50;19.10;99.90
6260;DHT22;3163;51.516;4.000;2023-05-10T13:14:16;19.10;99.90
6260;DHT22;3163;51.516;4.000;2023-05-10T13:16:42;19.10;99.90
6260;DHT22;3163;51.516;4.000;2023-05-10T13:19:07;19.10;99.90
6260;DHT22;3163;51.516;4.000;2023-05-10T13:21:33;19.10;99.90
6260;DHT22;3163;51.516;4.000;2023-05-10T13:23:58;19.10;99.90
6260;DHT22;3163;51.516;4.000;2023-05-10T13:26:25;19.10;99.90
6260;DHT22;3163;51.516;4.000;2023-05-10T13:28:51;19.00;99.90
6260;DHT22;3163;51.516;4.000;2023-05-10T13:31:17;18.80;99.90
6260;DHT22;3163;51.516;4.000;2023-05-10T13:33:42;18.80;99.90
6260;DHT22;3163;51.516;4.000;2023-05-10T13:36:08;18.90;99.90
6260;DHT22;3163;51.516;4.000;2023-05-10T13:38:34;18.90;99.90
6260;DHT22;3163;51.516;4.000;2023-05-10T13:40:59;18.90;99.90
6260;DHT22;3163;51.516;4.000;2023-05-10T13:43:25;18.90;99.90
6260;DHT22;3163;51.516;4.000;2023-05-10T13:45:50;19.00;99.90
6260;DHT22;3163;51.516;4.000;2023-05-10T13:48:16;19.00;99.90
6260;DHT22;3163;51.516;4.000;2023-05-10T13:50:42;19.00;99.90
6260;DHT22;3163;51.516;4.000;2023-05-10T13:53:08;19.00;99.90
6260;DHT22;3163;51.516;4.000;2023-05-10T13:55:33;19.00;99.90
6260;DHT22;3163;51.516;4.000;2023-05-10T13:57:59;19.10;99.90
6260;DHT22;3163;51.516;4.000;2023-05-10T14:00:25;18.90;99.90
6260;DHT22;3163;51.516;4.000;2023-05-10T14:02:50;18.90;99.90
6260;DHT22;3163;51.516;4.000;2023-05-10T14:05:16;18.80;99.90
6260;DHT22;3163;51.516;4.000;2023-05-10T14:07:42;18.90;99.90
6260;DHT22;3163;51.516;4.000;2023-05-10T14:10:08;18.90;99.90
6260;DHT22;3163;51.516;4.000;2023-05-10T14:12:33;18.80;99.90
6260;DHT22;3163;51.516;4.000;2023-05-10T14:14:59;18.80;99.90
6260;DHT22;3163;51.516;4.000;2023-05-10T14:17:24;18.80;99.90
6260;DHT22;3163;51.516;4.000;2023-05-10T14:19:50;18.70;99.90
6260;DHT22;3163;51.516;4.000;2023-05-10T14:22:15;18.70;99.90
6260;DHT22;3163;51.516;4.000;2023-05-10T14:24:41;18.70;99.90
6260;DHT22;3163;51.516;4.000;2023-05-10T14:27:06;18.70;99.90
6260;DHT22;3163;51.516;4.000;2023-05-10T14:29:32;18.70;99.90
6260;DHT22;3163;51.516;4.000;2023-05-10T14:31:58;18.60;99.90
6260;DHT22;3163;51.516;4.000;2023-05-10T14:34:23;18.60;99.90
6260;DHT22;3163;51.516;4.000;2023-05-10T14:36:49;18.60;99.90
6260;DHT22;3163;51.516;4.000;2023-05-10T14:39:15;18.60;99.90
6260;DHT22;3163;51.516;4.000;2023-05-10T14:41:40;18.70;99.90
6260;DHT22;3163;51.516;4.000;2023-05-10T14:44:08;18.70;99.90
6260;DHT22;3163;51.516;4.000;2023-05-10T14:46:33;18.70;99.90
6260;DHT22;3163;51.516;4.000;2023-05-10T14:48:59;18.70;99.90
6260;DHT22;3163;51.516;4.000;2023-05-10T14:51:25;18.70;99.90
6260;DHT22;3163;51.516;4.000;2023-05-10T14:53:51;18.70;99.90
6260;DHT22;3163;51.516;4.000;2023-05-10T14:56:16;18.70;99.90
6260;DHT22;3163;51.516;4.000;2023-05-10T14:58:42;18.70;99.90
6260;DHT22;3163;51.516;4.000;2023-05-10T15:01:07;18.70;99.90
6260;DHT22;3163;51.516;4.000;2023-05-10T15:03:33;18.40;99.90
6260;DHT22;3163;51.516;4.000;2023-05-10T15:05:59;18.40;99.90
6260;DHT22;3163;51.516;4.000;2023-05-10T15:08:24;18.40;99.90
6260;DHT22;3163;51.516;4.000;2023-05-10T15:10:51;18.50;99.90
6260;DHT22;3163;51.516;4.000;2023-05-10T15:13:17;18.50;99.90
6260;DHT22;3163;51.516;4.000;2023-05-10T15:15:43;18.50;99.90
6260;DHT22;3163;51.516;4.000;2023-05-10T15:18:09;18.40;99.90
6260;DHT22;3163;51.516;4.000;2023-05-10T15:20:35;18.50;99.90
6260;DHT22;3163;51.516;4.000;2023-05-10T15:23:00;18.40;99.90
6260;DHT22;3163;51.516;4.000;2023-05-10T15:25:26;18.50;99.90
6260;DHT22;3163;51.516;4.000;2023-05-10T15:27:53;18.40;99.90
6260;DHT22;3163;51.516;4.000;2023-05-10T15:30:18;18.50;99.90
6260;DHT22;3163;51.516;4.000;2023-05-10T15:32:44;18.40;99.90
6260;DHT22;3163;51.516;4.000;2023-05-10T15:35:10;18.30;99.90
6260;DHT22;3163;51.516;4.000;2023-05-10T15:37:37;18.30;99.90
6260;DHT22;3163;51.516;4.000;2023-05-10T15:40:03;18.40;99.90
6260;DHT22;3163;51.516;4.000;2023-05-10T15:42:32;18.40;99.90
6260;DHT22;3163;51.516;4.000;2023-05-10T15:44:58;18.50;99.90
6260;DHT22;3163;51.516;4.000;2023-05-10T15:47:26;18.50;99.90
6260;DHT22;3163;51.516;4.000;2023-05-10T15:49:53;18.60;99.90
6260;DHT22;3163;51.516;4.000;2023-05-10T15:52:18;18.60;99.90
6260;DHT22;3163;51.516;4.000;2023-05-10T15:54:45;18.50;99.90
6260;DHT22;3163;51.516;4.000;2023-05-10T15:57:11;18.50;99.90
6260;DHT22;3163;51.516;4.000;2023-05-10T15:59:37;18.50;99.90
6260;DHT22;3163;51.516;4.000;2023-05-10T16:02:02;18.60;99.90
6260;DHT22;3163;51.516;4.000;2023-05-10T16:04:29;18.50;99.90
6260;DHT22;3163;51.516;4.000;2023-05-10T16:06:54;18.40;99.90
6260;DHT22;3163;51.516;4.000;2023-05-10T16:09:20;18.40;99.90
6260;DHT22;3163;51.516;4.000;2023-05-10T16:11:46;18.40;99.90
6260;DHT22;3163;51.516;4.000;2023-05-10T16:14:12;18.40;99.90
6260;DHT22;3163;51.516;4.000;2023-05-10T16:16:37;18.40;99.90
6260;DHT22;3163;51.516;4.000;2023-05-10T16:19:05;18.50;99.90
6260;DHT22;3163;51.516;4.000;2023-05-10T16:21:31;18.50;99.90
6260;DHT22;3163;51.516;4.000;2023-05-10T16:23:58;18.50;99.90
6260;DHT22;3163;51.516;4.000;2023-05-10T16:26:24;18.40;99.90
6260;DHT22;3163;51.516;4.000;2023-05-10T16:28:50;18.40;99.90
6260;DHT22;3163;51.516;4.000;2023-05-10T16:31:16;18.40;99.90
6260;DHT22;3163;51.516;4.000;2023-05-10T16:33:45;18.40;99.90
6260;DHT22;3163;51.516;4.000;2023-05-10T16:36:11;18.40;99.90
6260;DHT22;3163;51.516;4.000;2023-05-10T16:38:36;18.30;99.90
6260;DHT22;3163;51.516;4.000;2023-05-10T16:41:02;18.20;99.90
6260;DHT22;3163;51.516;4.000;2023-05-10T16:43:28;18.30;99.90
6260;DHT22;3163;51.516;4.000;2023-05-10T16:45:55;18.40;99.90
6260;DHT22;3163;51.516;4.000;2023-05-10T16:48:20;18.40;99.90
6260;DHT22;3163;51.516;4.000;2023-05-10T16:50:46;18.40;99.90
6260;DHT22;3163;51.516;4.000;2023-05-10T16:53:12;18.50;99.90